sensor_id;sensor_type;location;lat;lon;timestamp;temperature;humidity
13409;DHT22;6775;49.574;11.170;2022-12-18T00:01:29;-9.90;99.90
13409;DHT22;6775;49.574;11.170;2022-12-18T00:03:58;-10.00;99.90
13409;DHT22;6775;49.574;11.170;2022-12-18T00:06:28;-10.10;99.90
13409;DHT22;6775;49.574;11.170;2022-12-18T00:08:57;-10.20;99.90
13409;DHT22;6775;49.574;11.170;2022-12-18T00:11:27;-10.20;99.90
13409;DHT22;6775;49.574;11.170;2022-12-18T00:13:57;-10.00;99.90
13409;DHT22;6775;49.574;11.170;2022-12-18T00:16:27;-9.80;99.90
13409;DHT22;6775;49.574;11.170;2022-12-18T00:18:57;-9.70;99.90
13409;DHT22;6775;49.574;11.170;2022-12-18T00:21:26;-9.70;99.90
13409;DHT22;6775;49.574;11.170;2022-12-18T00:23:54;-9.70;99.90
13409;DHT22;6775;49.574;11.170;2022-12-18T00:26:23;-9.60;99.90
13409;DHT22;6775;49.574;11.170;2022-12-18T00:28:52;-9.60;99.90
13409;DHT22;6775;49.574;11.170;2022-12-18T00:31:21;-9.80;99.90
13409;DHT22;6775;49.574;11.170;2022-12-18T00:33:51;-10.10;99.90
13409;DHT22;6775;49.574;11.170;2022-12-18T00:36:23;-10.20;99.90
13409;DHT22;6775;49.574;11.170;2022-12-18T00:38:51;-10.30;99.90
13409;DHT22;6775;49.574;11.170;2022-12-18T00:41:20;-10.30;99.90
13409;DHT22;6775;49.574;11.170;2022-12-18T00:44:03;-10.10;99.90
13409;DHT22;6775;49.574;11.170;2022-12-18T00:46:31;-9.80;99.90
13409;DHT22;6775;49.574;11.170;2022-12-18T00:49:01;-9.60;99.90
13409;DHT22;6775;49.574;11.170;2022-12-18T00:51:29;-9.60;99.90
13409;DHT22;6775;49.574;11.170;2022-12-18T00:53:57;-9.70;99.90
13409;DHT22;6775;49.574;11.170;2022-12-18T00:56:24;-9.80;99.90
13409;DHT22;6775;49.574;11.170;2022-12-18T00:58:53;-10.00;99.90
13409;DHT22;6775;49.574;11.170;2022-12-18T01:01:20;-10.10;99.90
13409;DHT22;6775;49.574;11.170;2022-12-18T01:03:48;-10.00;99.90
13409;DHT22;6775;49.574;11.170;2022-12-18T01:06:17;-9.80;99.90
13409;DHT22;6775;49.574;11.170;2022-12-18T01:08:45;-9.70;99.90
13409;DHT22;6775;49.574;11.170;2022-12-18T01:11:15;-9.70;99.90
13409;DHT22;6775;49.574;11.170;2022-12-18T01:13:43;-9.90;99.90
13409;DHT22;6775;49.574;11.170;2022-12-18T01:16:11;-10.10;99.90
13409;DHT22;6775;49.574;11.170;2022-12-18T01:18:40;-10.00;99.90
13409;DHT22;6775;49.574;11.170;2022-12-18T01:21:08;-9.80;99.90
13409;DHT22;6775;49.574;11.170;2022-12-18T01:23:38;-9.50;99.90
13409;DHT22;6775;49.574;11.170;2022-12-18T01:26:07;-9.30;99.90
13409;DHT22;6775;49.574;11.170;2022-12-18T01:28:35;-9.30;99.90
13409;DHT22;6775;49.574;11.170;2022-12-18T01:31:16;-9.60;99.90
13409;DHT22;6775;49.574;11.170;2022-12-18T01:33:45;-9.80;99.90
13409;DHT22;6775;49.574;11.170;2022-12-18T01:36:18;-9.90;99.90
13409;DHT22;6775;49.574;11.170;2022-12-18T01:38:48;-10.00;99.90
13409;DHT22;6775;49.574;11.170;2022-12-18T01:41:18;-10.10;99.90
13409;DHT22;6775;49.574;11.170;2022-12-18T01:43:51;-10.10;99.90
13409;DHT22;6775;49.574;11.170;2022-12-18T01:46:21;-10.10;99.90
13409;DHT22;6775;49.574;11.170;2022-12-18T01:48:54;-10.00;99.90
13409;DHT22;6775;49.574;11.170;2022-12-18T01:51:24;-9.70;99.90
13409;DHT22;6775;49.574;11.170;2022-12-18T01:53:54;-9.40;99.90
13409;DHT22;6775;49.574;11.170;2022-12-18T01:56:22;-9.20;99.90
13409;DHT22;6775;49.574;11.170;2022-12-18T01:58:55;-9.10;99.90
13409;DHT22;6775;49.574;11.170;2022-12-18T02:01:25;-9.00;99.90
13409;DHT22;6775;49.574;11.170;2022-12-18T02:03:53;-8.90;99.90
13409;DHT22;6775;49.574;11.170;2022-12-18T02:06:26;-8.70;99.90
13409;DHT22;6775;49.574;11.170;2022-12-18T02:09:05;-8.60;99.90
13409;DHT22;6775;49.574;11.170;2022-12-18T02:11:42;-8.50;99.90
13409;DHT22;6775;49.574;11.170;2022-12-18T02:14:20;-8.60;99.90
13409;DHT22;6775;49.574;11.170;2022-12-18T02:16:54;-8.80;99.90
13409;DHT22;6775;49.574;11.170;2022-12-18T02:19:39;-9.00;99.90
13409;DHT22;6775;49.574;11.170;2022-12-18T02:22:21;-9.10;99.90
13409;DHT22;6775;49.574;11.170;2022-12-18T02:25:11;-9.20;99.90
13409;DHT22;6775;49.574;11.170;2022-12-18T02:27:45;-9.40;99.90
13409;DHT22;6775;49.574;11.170;2022-12-18T02:30:14;-9.60;99.90
13409;DHT22;6775;49.574;11.170;2022-12-18T02:32:46;-9.80;99.90
13409;DHT22;6775;49.574;11.170;2022-12-18T02:35:17;-9.90;99.90
13409;DHT22;6775;49.574;11.170;2022-12-18T02:37:47;-10.00;99.90
13409;DHT22;6775;49.574;11.170;2022-12-18T02:40:17;-10.10;99.90
13409;DHT22;6775;49.574;11.170;2022-12-18T02:42:46;-10.20;99.90
13409;DHT22;6775;49.574;11.170;2022-12-18T02:45:14;-10.10;99.90
13409;DHT22;6775;49.574;11.170;2022-12-18T02:47:44;-10.10;99.90
13409;DHT22;6775;49.574;11.170;2022-12-18T02:50:19;-10.10;99.90
13409;DHT22;6775;49.574;11.170;2022-12-18T02:52:56;-10.10;99.90
13409;DHT22;6775;49.574;11.170;2022-12-18T02:55:36;-10.00;99.90
13409;DHT22;6775;49.574;11.170;2022-12-18T02:58:16;-9.90;99.90
13409;DHT22;6775;49.574;11.170;2022-12-18T03:00:51;-9.90;99.90
13409;DHT22;6775;49.574;11.170;2022-12-18T03:03:25;-9.90;99.90
13409;DHT22;6775;49.574;11.170;2022-12-18T03:06:01;-9.90;99.90
13409;DHT22;6775;49.574;11.170;2022-12-18T03:08:33;-10.00;99.90
13409;DHT22;6775;49.574;11.170;2022-12-18T03:11:03;-10.00;99.90
13409;DHT22;6775;49.574;11.170;2022-12-18T03:13:35;-9.80;99.90
13409;DHT22;6775;49.574;11.170;2022-12-18T03:16:06;-9.60;99.90
13409;DHT22;6775;49.574;11.170;2022-12-18T03:18:38;-9.30;99.90
13409;DHT22;6775;49.574;11.170;2022-12-18T03:21:08;-9.00;99.90
13409;DHT22;6775;49.574;11.170;2022-12-18T03:23:40;-8.70;99.90
13409;DHT22;6775;49.574;11.170;2022-12-18T03:26:14;-8.70;99.90
13409;DHT22;6775;49.574;11.170;2022-12-18T03:28:47;-8.70;99.90
13409;DHT22;6775;49.574;11.170;2022-12-18T03:31:18;-8.80;99.90
13409;DHT22;6775;49.574;11.170;2022-12-18T03:33:52;-8.80;99.90
13409;DHT22;6775;49.574;11.170;2022-12-18T03:36:21;-8.90;99.90
13409;DHT22;6775;49.574;11.170;2022-12-18T03:38:51;-9.00;99.90
13409;DHT22;6775;49.574;11.170;2022-12-18T03:41:25;-9.20;99.90
13409;DHT22;6775;49.574;11.170;2022-12-18T03:44:00;-9.50;99.90
13409;DHT22;6775;49.574;11.170;2022-12-18T03:46:40;-9.70;99.90
13409;DHT22;6775;49.574;11.170;2022-12-18T03:49:11;-10.00;99.90
13409;DHT22;6775;49.574;11.170;2022-12-18T03:51:43;-10.30;99.90
13409;DHT22;6775;49.574;11.170;2022-12-18T03:54:16;-10.60;99.90
13409;DHT22;6775;49.574;11.170;2022-12-18T03:56:48;-10.80;99.90
13409;DHT22;6775;49.574;11.170;2022-12-18T03:59:19;-10.90;99.90
13409;DHT22;6775;49.574;11.170;2022-12-18T04:01:49;-10.90;99.90
13409;DHT22;6775;49.574;11.170;2022-12-18T04:04:18;-11.00;99.90
13409;DHT22;6775;49.574;11.170;2022-12-18T04:06:48;-11.00;99.90
13409;DHT22;6775;49.574;11.170;2022-12-18T04:09:18;-11.00;99.90
13409;DHT22;6775;49.574;11.170;2022-12-18T04:11:46;-11.00;99.90
13409;DHT22;6775;49.574;11.170;2022-12-18T04:14:15;-11.00;99.90
13409;DHT22;6775;49.574;11.170;2022-12-18T04:16:45;-11.00;99.90
13409;DHT22;6775;49.574;11.170;2022-12-18T04:19:13;-11.00;99.90
13409;DHT22;6775;49.574;11.170;2022-12-18T04:21:41;-10.80;99.90
13409;DHT22;6775;49.574;11.170;2022-12-18T04:24:09;-10.70;99.90
13409;DHT22;6775;49.574;11.170;2022-12-18T04:26:37;-10.60;99.90
13409;DHT22;6775;49.574;11.170;2022-12-18T04:29:05;-10.40;99.90
13409;DHT22;6775;49.574;11.170;2022-12-18T04:31:33;-10.30;99.90
13409;DHT22;6775;49.574;11.170;2022-12-18T04:34:02;-10.20;99.90
13409;DHT22;6775;49.574;11.170;2022-12-18T04:36:30;-10.10;99.90
13409;DHT22;6775;49.574;11.170;2022-12-18T04:38:58;-10.20;99.90
13409;DHT22;6775;49.574;11.170;2022-12-18T04:41:26;-10.30;99.90
13409;DHT22;6775;49.574;11.170;2022-12-18T04:43:54;-10.20;99.90
13409;DHT22;6775;49.574;11.170;2022-12-18T04:46:22;-10.30;99.90
13409;DHT22;6775;49.574;11.170;2022-12-18T04:48:50;-10.40;99.90
13409;DHT22;6775;49.574;11.170;2022-12-18T04:51:19;-10.40;99.90
13409;DHT22;6775;49.574;11.170;2022-12-18T04:53:52;-10.40;99.90
13409;DHT22;6775;49.574;11.170;2022-12-18T04:56:20;-10.30;99.90
13409;DHT22;6775;49.574;11.170;2022-12-18T04:58:48;-10.10;99.90
13409;DHT22;6775;49.574;11.170;2022-12-18T05:01:17;-9.80;99.90
13409;DHT22;6775;49.574;11.170;2022-12-18T05:03:45;-9.60;99.90
13409;DHT22;6775;49.574;11.170;2022-12-18T05:06:14;-9.50;99.90
13409;DHT22;6775;49.574;11.170;2022-12-18T05:08:43;-9.40;99.90
13409;DHT22;6775;49.574;11.170;2022-12-18T05:11:14;-9.40;99.90
13409;DHT22;6775;49.574;11.170;2022-12-18T05:13:43;-9.40;99.90
13409;DHT22;6775;49.574;11.170;2022-12-18T05:16:12;-9.40;99.90
13409;DHT22;6775;49.574;11.170;2022-12-18T05:18:41;-9.30;99.90
13409;DHT22;6775;49.574;11.170;2022-12-18T05:21:09;-9.20;99.90
13409;DHT22;6775;49.574;11.170;2022-12-18T05:23:37;-9.30;99.90
13409;DHT22;6775;49.574;11.170;2022-12-18T05:26:07;-9.40;99.90
13409;DHT22;6775;49.574;11.170;2022-12-18T05:28:36;-9.50;99.90
13409;DHT22;6775;49.574;11.170;2022-12-18T05:31:04;-9.60;99.90
13409;DHT22;6775;49.574;11.170;2022-12-18T05:33:34;-9.60;99.90
13409;DHT22;6775;49.574;11.170;2022-12-18T05:36:04;-9.50;99.90
13409;DHT22;6775;49.574;11.170;2022-12-18T05:38:34;-9.50;99.90
13409;DHT22;6775;49.574;11.170;2022-12-18T05:41:03;-9.50;99.90
13409;DHT22;6775;49.574;11.170;2022-12-18T05:43:34;-9.50;99.90
13409;DHT22;6775;49.574;11.170;2022-12-18T05:46:06;-9.40;99.90
13409;DHT22;6775;49.574;11.170;2022-12-18T05:48:34;-9.30;99.90
13409;DHT22;6775;49.574;11.170;2022-12-18T05:51:05;-9.10;99.90
13409;DHT22;6775;49.574;11.170;2022-12-18T05:53:34;-9.00;99.90
13409;DHT22;6775;49.574;11.170;2022-12-18T05:56:05;-8.80;99.90
13409;DHT22;6775;49.574;11.170;2022-12-18T05:58:35;-8.80;99.90
13409;DHT22;6775;49.574;11.170;2022-12-18T06:01:08;-8.70;99.90
13409;DHT22;6775;49.574;11.170;2022-12-18T06:03:36;-8.70;99.90
13409;DHT22;6775;49.574;11.170;2022-12-18T06:06:13;-8.70;99.90
13409;DHT22;6775;49.574;11.170;2022-12-18T06:08:41;-8.60;99.90
13409;DHT22;6775;49.574;11.170;2022-12-18T06:11:12;-8.70;99.90
13409;DHT22;6775;49.574;11.170;2022-12-18T06:13:41;-8.70;99.90
13409;DHT22;6775;49.574;11.170;2022-12-18T06:16:09;-8.70;99.90
13409;DHT22;6775;49.574;11.170;2022-12-18T06:18:37;-8.80;99.90
13409;DHT22;6775;49.574;11.170;2022-12-18T06:21:05;-8.80;99.90
13409;DHT22;6775;49.574;11.170;2022-12-18T06:23:33;-8.80;99.90
13409;DHT22;6775;49.574;11.170;2022-12-18T06:26:07;-8.80;99.90
13409;DHT22;6775;49.574;11.170;2022-12-18T06:28:36;-8.70;99.90
13409;DHT22;6775;49.574;11.170;2022-12-18T06:31:05;-8.60;99.90
13409;DHT22;6775;49.574;11.170;2022-12-18T06:33:34;-8.60;99.90
13409;DHT22;6775;49.574;11.170;2022-12-18T06:36:04;-8.80;99.90
13409;DHT22;6775;49.574;11.170;2022-12-18T06:38:33;-8.90;99.90
13409;DHT22;6775;49.574;11.170;2022-12-18T06:41:06;-9.10;99.90
13409;DHT22;6775;49.574;11.170;2022-12-18T06:43:34;-9.20;99.90
13409;DHT22;6775;49.574;11.170;2022-12-18T06:46:05;-9.30;99.90
13409;DHT22;6775;49.574;11.170;2022-12-18T06:48:34;-9.30;99.90
13409;DHT22;6775;49.574;11.170;2022-12-18T06:51:02;-9.30;99.90
13409;DHT22;6775;49.574;11.170;2022-12-18T06:53:31;-9.20;99.90
13409;DHT22;6775;49.574;11.170;2022-12-18T06:56:00;-8.90;99.90
13409;DHT22;6775;49.574;11.170;2022-12-18T06:58:35;-8.60;99.90
13409;DHT22;6775;49.574;11.170;2022-12-18T07:01:06;-8.40;99.90
13409;DHT22;6775;49.574;11.170;2022-12-18T07:03:35;-8.20;99.90
13409;DHT22;6775;49.574;11.170;2022-12-18T07:06:04;-8.10;99.90
13409;DHT22;6775;49.574;11.170;2022-12-18T07:08:32;-7.90;99.90
13409;DHT22;6775;49.574;11.170;2022-12-18T07:11:03;-7.50;99.90
13409;DHT22;6775;49.574;11.170;2022-12-18T07:13:31;-7.30;99.90
13409;DHT22;6775;49.574;11.170;2022-12-18T07:16:06;-6.10;99.90
13409;DHT22;6775;49.574;11.170;2022-12-18T07:18:43;-6.90;99.90
13409;DHT22;6775;49.574;11.170;2022-12-18T07:21:13;-6.70;99.90
13409;DHT22;6775;49.574;11.170;2022-12-18T07:23:42;-6.50;99.90
13409;DHT22;6775;49.574;11.170;2022-12-18T07:26:11;-6.50;99.90
13409;DHT22;6775;49.574;11.170;2022-12-18T07:28:41;-6.50;99.90
13409;DHT22;6775;49.574;11.170;2022-12-18T07:31:12;-6.50;99.90
13409;DHT22;6775;49.574;11.170;2022-12-18T07:33:40;-6.50;99.90
13409;DHT22;6775;49.574;11.170;2022-12-18T07:36:09;-6.40;99.90
13409;DHT22;6775;49.574;11.170;2022-12-18T07:38:38;-6.40;99.90
13409;DHT22;6775;49.574;11.170;2022-12-18T07:41:07;-6.30;99.90
13409;DHT22;6775;49.574;11.170;2022-12-18T07:43:37;-6.30;99.90
13409;DHT22;6775;49.574;11.170;2022-12-18T07:46:06;-6.30;99.90
13409;DHT22;6775;49.574;11.170;2022-12-18T07:48:35;-6.20;99.90
13409;DHT22;6775;49.574;11.170;2022-12-18T07:51:05;-6.10;99.90
13409;DHT22;6775;49.574;11.170;2022-12-18T07:53:34;-6.10;99.90
13409;DHT22;6775;49.574;11.170;2022-12-18T07:56:05;-6.10;99.90
13409;DHT22;6775;49.574;11.170;2022-12-18T07:58:53;-6.10;99.90
13409;DHT22;6775;49.574;11.170;2022-12-18T08:01:21;-6.00;99.90
13409;DHT22;6775;49.574;11.170;2022-12-18T08:03:51;-6.00;99.90
13409;DHT22;6775;49.574;11.170;2022-12-18T08:06:19;-5.90;99.90
13409;DHT22;6775;49.574;11.170;2022-12-18T08:08:51;-5.80;99.90
13409;DHT22;6775;49.574;11.170;2022-12-18T08:11:19;-5.80;99.90
13409;DHT22;6775;49.574;11.170;2022-12-18T08:13:47;-5.80;99.90
13409;DHT22;6775;49.574;11.170;2022-12-18T08:16:15;-5.70;99.90
13409;DHT22;6775;49.574;11.170;2022-12-18T08:18:44;-5.70;99.90
13409;DHT22;6775;49.574;11.170;2022-12-18T08:21:14;-5.60;99.90
13409;DHT22;6775;49.574;11.170;2022-12-18T08:23:43;-5.50;99.90
13409;DHT22;6775;49.574;11.170;2022-12-18T08:26:12;-5.40;99.90
13409;DHT22;6775;49.574;11.170;2022-12-18T08:28:41;-5.30;99.90
13409;DHT22;6775;49.574;11.170;2022-12-18T08:31:09;-5.30;99.90
13409;DHT22;6775;49.574;11.170;2022-12-18T08:33:38;-5.20;99.90
13409;DHT22;6775;49.574;11.170;2022-12-18T08:36:08;-5.20;99.90
13409;DHT22;6775;49.574;11.170;2022-12-18T08:38:38;-5.10;99.90
13409;DHT22;6775;49.574;11.170;2022-12-18T08:41:09;-5.10;99.90
13409;DHT22;6775;49.574;11.170;2022-12-18T08:43:37;-5.00;99.90
13409;DHT22;6775;49.574;11.170;2022-12-18T08:46:25;-4.90;99.90
13409;DHT22;6775;49.574;11.170;2022-12-18T08:48:54;-4.80;99.90
13409;DHT22;6775;49.574;11.170;2022-12-18T08:51:22;-4.70;99.90
13409;DHT22;6775;49.574;11.170;2022-12-18T08:53:52;-4.50;99.90
13409;DHT22;6775;49.574;11.170;2022-12-18T08:56:20;-4.20;99.90
13409;DHT22;6775;49.574;11.170;2022-12-18T08:58:50;-4.10;99.90
13409;DHT22;6775;49.574;11.170;2022-12-18T09:01:18;-3.90;99.90
13409;DHT22;6775;49.574;11.170;2022-12-18T09:03:47;-3.80;99.90
13409;DHT22;6775;49.574;11.170;2022-12-18T09:06:16;-3.80;99.90
13409;DHT22;6775;49.574;11.170;2022-12-18T09:08:44;-3.80;99.90
13409;DHT22;6775;49.574;11.170;2022-12-18T09:11:19;-3.80;99.90
13409;DHT22;6775;49.574;11.170;2022-12-18T09:13:47;-3.70;99.90
13409;DHT22;6775;49.574;11.170;2022-12-18T09:16:15;-3.60;99.90
13409;DHT22;6775;49.574;11.170;2022-12-18T09:18:43;-3.60;99.90
13409;DHT22;6775;49.574;11.170;2022-12-18T09:21:13;-3.50;99.90
13409;DHT22;6775;49.574;11.170;2022-12-18T09:23:41;-3.40;99.90
13409;DHT22;6775;49.574;11.170;2022-12-18T09:26:10;-3.30;99.90
13409;DHT22;6775;49.574;11.170;2022-12-18T09:28:39;-3.30;99.90
13409;DHT22;6775;49.574;11.170;2022-12-18T09:31:10;-3.20;99.90
13409;DHT22;6775;49.574;11.170;2022-12-18T09:33:39;-3.10;99.90
13409;DHT22;6775;49.574;11.170;2022-12-18T09:36:14;-3.00;99.90
13409;DHT22;6775;49.574;11.170;2022-12-18T09:38:42;-2.90;99.90
13409;DHT22;6775;49.574;11.170;2022-12-18T09:41:22;-2.90;99.90
13409;DHT22;6775;49.574;11.170;2022-12-18T09:43:58;-2.90;99.90
13409;DHT22;6775;49.574;11.170;2022-12-18T09:46:29;-2.70;99.90
13409;DHT22;6775;49.574;11.170;2022-12-18T09:49:01;-2.60;99.90
13409;DHT22;6775;49.574;11.170;2022-12-18T09:51:36;-2.70;99.90
13409;DHT22;6775;49.574;11.170;2022-12-18T09:54:09;-2.60;99.90
13409;DHT22;6775;49.574;11.170;2022-12-18T09:56:41;-2.60;99.90
13409;DHT22;6775;49.574;11.170;2022-12-18T09:59:20;-2.70;99.90
13409;DHT22;6775;49.574;11.170;2022-12-18T10:01:48;-2.70;99.90
13409;DHT22;6775;49.574;11.170;2022-12-18T10:04:17;-2.80;99.90
13409;DHT22;6775;49.574;11.170;2022-12-18T10:06:50;-2.80;99.90
13409;DHT22;6775;49.574;11.170;2022-12-18T10:09:28;-2.80;99.90
13409;DHT22;6775;49.574;11.170;2022-12-18T10:12:05;-2.90;99.90
13409;DHT22;6775;49.574;11.170;2022-12-18T10:14:43;-3.00;99.90
13409;DHT22;6775;49.574;11.170;2022-12-18T10:17:22;-3.10;99.90
13409;DHT22;6775;49.574;11.170;2022-12-18T10:19:54;-3.00;99.90
13409;DHT22;6775;49.574;11.170;2022-12-18T10:22:40;-3.10;99.90
13409;DHT22;6775;49.574;11.170;2022-12-18T10:25:20;-3.10;99.90
13409;DHT22;6775;49.574;11.170;2022-12-18T10:27:53;-3.10;99.90
13409;DHT22;6775;49.574;11.170;2022-12-18T10:30:24;-3.20;99.90
13409;DHT22;6775;49.574;11.170;2022-12-18T10:32:53;-3.20;99.90
13409;DHT22;6775;49.574;11.170;2022-12-18T10:35:25;-3.20;99.90
13409;DHT22;6775;49.574;11.170;2022-12-18T10:38:04;-3.20;99.90
13409;DHT22;6775;49.574;11.170;2022-12-18T10:40:47;-3.20;99.90
13409;DHT22;6775;49.574;11.170;2022-12-18T10:43:19;-3.20;99.90
13409;DHT22;6775;49.574;11.170;2022-12-18T10:46:01;-3.20;99.90
13409;DHT22;6775;49.574;11.170;2022-12-18T10:48:31;-3.10;99.90
13409;DHT22;6775;49.574;11.170;2022-12-18T10:51:00;-3.10;99.90
13409;DHT22;6775;49.574;11.170;2022-12-18T10:53:40;-3.10;99.90
13409;DHT22;6775;49.574;11.170;2022-12-18T10:56:09;-3.00;99.90
13409;DHT22;6775;49.574;11.170;2022-12-18T10:58:38;-3.10;99.90
13409;DHT22;6775;49.574;11.170;2022-12-18T11:01:11;-3.00;99.90
13409;DHT22;6775;49.574;11.170;2022-12-18T11:03:40;-3.00;99.90
13409;DHT22;6775;49.574;11.170;2022-12-18T11:06:11;-3.00;99.90
13409;DHT22;6775;49.574;11.170;2022-12-18T11:08:40;-3.00;99.90
13409;DHT22;6775;49.574;11.170;2022-12-18T11:11:18;-3.00;99.90
13409;DHT22;6775;49.574;11.170;2022-12-18T11:13:56;-3.00;99.90
13409;DHT22;6775;49.574;11.170;2022-12-18T11:16:28;-2.90;99.90
13409;DHT22;6775;49.574;11.170;2022-12-18T11:19:11;-2.90;99.90
13409;DHT22;6775;49.574;11.170;2022-12-18T11:21:41;-2.90;99.90
13409;DHT22;6775;49.574;11.170;2022-12-18T11:24:19;-2.90;99.90
13409;DHT22;6775;49.574;11.170;2022-12-18T11:26:49;-2.80;99.90
13409;DHT22;6775;49.574;11.170;2022-12-18T11:29:31;-2.80;99.90
13409;DHT22;6775;49.574;11.170;2022-12-18T11:32:32;-2.80;99.90
13409;DHT22;6775;49.574;11.170;2022-12-18T11:35:09;-2.80;99.90
13409;DHT22;6775;49.574;11.170;2022-12-18T11:37:40;-2.80;99.90
13409;DHT22;6775;49.574;11.170;2022-12-18T11:40:13;-2.80;99.90
13409;DHT22;6775;49.574;11.170;2022-12-18T11:42:46;-2.80;99.90
13409;DHT22;6775;49.574;11.170;2022-12-18T11:45:25;-2.80;99.90
13409;DHT22;6775;49.574;11.170;2022-12-18T11:48:00;-2.80;99.90
13409;DHT22;6775;49.574;11.170;2022-12-18T11:50:34;-2.70;99.90
13409;DHT22;6775;49.574;11.170;2022-12-18T11:53:11;-2.70;99.90
13409;DHT22;6775;49.574;11.170;2022-12-18T11:55:45;-2.60;99.90
13409;DHT22;6775;49.574;11.170;2022-12-18T11:58:25;-2.60;99.90
13409;DHT22;6775;49.574;11.170;2022-12-18T12:01:06;-2.50;99.90
13409;DHT22;6775;49.574;11.170;2022-12-18T12:03:59;-2.40;99.90
13409;DHT22;6775;49.574;11.170;2022-12-18T12:06:37;-1.90;99.90
13409;DHT22;6775;49.574;11.170;2022-12-18T12:09:15;-1.30;99.90
13409;DHT22;6775;49.574;11.170;2022-12-18T12:11:54;-1.30;99.90
13409;DHT22;6775;49.574;11.170;2022-12-18T12:14:42;-1.20;99.90
13409;DHT22;6775;49.574;11.170;2022-12-18T12:17:20;-0.70;99.90
13409;DHT22;6775;49.574;11.170;2022-12-18T12:19:58;-0.40;99.90
13409;DHT22;6775;49.574;11.170;2022-12-18T12:22:36;-0.30;99.90
13409;DHT22;6775;49.574;11.170;2022-12-18T12:25:27;-0.30;99.90
13409;DHT22;6775;49.574;11.170;2022-12-18T12:28:07;-0.30;99.90
13409;DHT22;6775;49.574;11.170;2022-12-18T12:30:46;-0.40;99.90
13409;DHT22;6775;49.574;11.170;2022-12-18T12:33:28;-0.60;99.90
13409;DHT22;6775;49.574;11.170;2022-12-18T12:36:06;-0.80;99.90
13409;DHT22;6775;49.574;11.170;2022-12-18T12:38:41;-1.00;99.90
13409;DHT22;6775;49.574;11.170;2022-12-18T12:41:18;-1.00;99.90
13409;DHT22;6775;49.574;11.170;2022-12-18T12:44:07;-0.80;99.90
13409;DHT22;6775;49.574;11.170;2022-12-18T12:46:39;-0.70;99.90
13409;DHT22;6775;49.574;11.170;2022-12-18T12:49:12;-0.50;99.90
13409;DHT22;6775;49.574;11.170;2022-12-18T12:51:45;-0.40;99.90
13409;DHT22;6775;49.574;11.170;2022-12-18T12:54:18;-0.20;99.90
13409;DHT22;6775;49.574;11.170;2022-12-18T12:56:51;0.00;99.90
13409;DHT22;6775;49.574;11.170;2022-12-18T12:59:30;0.00;99.90
13409;DHT22;6775;49.574;11.170;2022-12-18T13:02:05;-0.20;99.90
13409;DHT22;6775;49.574;11.170;2022-12-18T13:04:42;-0.50;99.90
13409;DHT22;6775;49.574;11.170;2022-12-18T13:07:18;-0.70;99.90
13409;DHT22;6775;49.574;11.170;2022-12-18T13:10:23;-0.90;99.90
13409;DHT22;6775;49.574;11.170;2022-12-18T13:13:13;-1.20;99.90
13409;DHT22;6775;49.574;11.170;2022-12-18T13:16:05;-1.40;99.90
13409;DHT22;6775;49.574;11.170;2022-12-18T13:18:34;-1.50;99.90
13409;DHT22;6775;49.574;11.170;2022-12-18T13:21:10;-1.60;99.90
13409;DHT22;6775;49.574;11.170;2022-12-18T13:23:40;-1.70;99.90
13409;DHT22;6775;49.574;11.170;2022-12-18T13:26:36;-1.80;99.90
13409;DHT22;6775;49.574;11.170;2022-12-18T13:29:04;-1.90;99.90
13409;DHT22;6775;49.574;11.170;2022-12-18T13:34:29;-2.00;99.90
13409;DHT22;6775;49.574;11.170;2022-12-18T13:40:02;-2.10;99.90
13409;DHT22;6775;49.574;11.170;2022-12-18T13:42:47;-2.10;99.90
13409;DHT22;6775;49.574;11.170;2022-12-18T13:45:44;-2.10;99.90
13409;DHT22;6775;49.574;11.170;2022-12-18T13:48:24;-2.20;99.90
13409;DHT22;6775;49.574;11.170;2022-12-18T13:50:57;-2.20;99.90
13409;DHT22;6775;49.574;11.170;2022-12-18T13:53:28;-2.20;99.90
13409;DHT22;6775;49.574;11.170;2022-12-18T13:55:58;-2.20;99.90
13409;DHT22;6775;49.574;11.170;2022-12-18T13:58:26;-2.30;99.90
13409;DHT22;6775;49.574;11.170;2022-12-18T14:00:54;-2.50;99.90
13409;DHT22;6775;49.574;11.170;2022-12-18T14:03:25;-2.50;99.90
13409;DHT22;6775;49.574;11.170;2022-12-18T14:06:00;-2.60;99.90
13409;DHT22;6775;49.574;11.170;2022-12-18T14:08:34;-2.70;99.90
13409;DHT22;6775;49.574;11.170;2022-12-18T14:11:06;-2.80;99.90
13409;DHT22;6775;49.574;11.170;2022-12-18T14:13:40;-2.80;99.90
13409;DHT22;6775;49.574;11.170;2022-12-18T14:16:13;-2.80;99.90
13409;DHT22;6775;49.574;11.170;2022-12-18T14:18:45;-2.80;99.90
13409;DHT22;6775;49.574;11.170;2022-12-18T14:21:31;-2.90;99.90
13409;DHT22;6775;49.574;11.170;2022-12-18T14:24:11;-3.00;99.90
13409;DHT22;6775;49.574;11.170;2022-12-18T14:26:44;-3.00;99.90
13409;DHT22;6775;49.574;11.170;2022-12-18T14:29:24;-3.00;99.90
13409;DHT22;6775;49.574;11.170;2022-12-18T14:32:10;-3.10;99.90
13409;DHT22;6775;49.574;11.170;2022-12-18T14:34:44;-3.10;99.90
13409;DHT22;6775;49.574;11.170;2022-12-18T14:37:13;-3.10;99.90
13409;DHT22;6775;49.574;11.170;2022-12-18T14:39:53;-3.20;99.90
13409;DHT22;6775;49.574;11.170;2022-12-18T14:42:22;-3.20;99.90
13409;DHT22;6775;49.574;11.170;2022-12-18T14:48:09;-3.20;99.90
13409;DHT22;6775;49.574;11.170;2022-12-18T14:50:39;-3.30;99.90
13409;DHT22;6775;49.574;11.170;2022-12-18T14:53:19;-3.30;99.90
13409;DHT22;6775;49.574;11.170;2022-12-18T14:55:48;-3.30;99.90
13409;DHT22;6775;49.574;11.170;2022-12-18T14:58:18;-3.30;99.90
13409;DHT22;6775;49.574;11.170;2022-12-18T15:00:46;-3.20;99.90
13409;DHT22;6775;49.574;11.170;2022-12-18T15:03:18;-3.30;99.90
13409;DHT22;6775;49.574;11.170;2022-12-18T15:05:47;-3.40;99.90
13409;DHT22;6775;49.574;11.170;2022-12-18T15:08:29;-3.50;99.90
13409;DHT22;6775;49.574;11.170;2022-12-18T15:10:58;-3.60;99.90
13409;DHT22;6775;49.574;11.170;2022-12-18T15:13:28;-3.60;99.90
13409;DHT22;6775;49.574;11.170;2022-12-18T15:16:00;-3.60;99.90
13409;DHT22;6775;49.574;11.170;2022-12-18T15:18:32;-3.70;99.90
13409;DHT22;6775;49.574;11.170;2022-12-18T15:21:08;-3.80;99.90
13409;DHT22;6775;49.574;11.170;2022-12-18T15:23:44;-3.80;99.90
13409;DHT22;6775;49.574;11.170;2022-12-18T15:26:14;-3.80;99.90
13409;DHT22;6775;49.574;11.170;2022-12-18T15:28:46;-3.90;99.90
13409;DHT22;6775;49.574;11.170;2022-12-18T15:31:28;-3.90;99.90
13409;DHT22;6775;49.574;11.170;2022-12-18T15:34:08;-4.00;99.90
13409;DHT22;6775;49.574;11.170;2022-12-18T15:36:37;-4.10;99.90
13409;DHT22;6775;49.574;11.170;2022-12-18T15:39:05;-4.10;99.90
13409;DHT22;6775;49.574;11.170;2022-12-18T15:41:34;-4.10;99.90
13409;DHT22;6775;49.574;11.170;2022-12-18T15:44:21;-4.20;99.90
13409;DHT22;6775;49.574;11.170;2022-12-18T15:46:48;-4.20;99.90
13409;DHT22;6775;49.574;11.170;2022-12-18T15:49:16;-4.20;99.90
13409;DHT22;6775;49.574;11.170;2022-12-18T15:51:44;-4.30;99.90
13409;DHT22;6775;49.574;11.170;2022-12-18T15:54:15;-4.30;99.90
13409;DHT22;6775;49.574;11.170;2022-12-18T15:56:43;-4.30;99.90
13409;DHT22;6775;49.574;11.170;2022-12-18T15:59:29;-4.30;99.90
13409;DHT22;6775;49.574;11.170;2022-12-18T16:01:57;-4.20;99.90
13409;DHT22;6775;49.574;11.170;2022-12-18T16:04:26;-4.20;99.90
13409;DHT22;6775;49.574;11.170;2022-12-18T16:06:54;-4.20;99.90
13409;DHT22;6775;49.574;11.170;2022-12-18T16:09:40;-4.20;99.90